Metar z połowy godziny Komunikat METAR ze strony awiacja.imgw.pl Metar Mil EPPW METAR EPPW 261100Z 28016KT 9999 BKN014 BKN020 01/03 Q1007 RMK 013 094 7/5=